Time;durP1;ratioP1;P1;durP2;ratioP2;P2;SDS_P1;SDS_P2;PMS_P1;PMS_P2;Temp;Humidity;BMP_temperature;BMP_pressure;BME280_temperature;BME280_humidity;BME280_pressure;Samples;Min_cycle;Max_cycle;Signal;HPM_P1;HPM_P2
2021/08/31 00:00:44;;;;;;;6.83;6.13;;;14.60;99.90;;;14.74;74.90;94478.03;5023831;28;20191;-73
2021/08/31 00:03:11;;;;;;;6.77;6.07;;;13.70;99.90;;;14.70;74.98;94471.69;5016641;28;20238;-73
2021/08/31 00:05:36;;;;;;;7.10;6.43;;;14.60;99.90;;;14.67;74.89;94474.09;5006622;28;20272;-73
2021/08/31 00:08:02;;;;;;;10.57;6.90;;;13.70;99.90;;;14.67;75.09;94464.19;4999153;28;20689;-73
2021/08/31 00:10:28;;;;;;;7.20;6.50;;;13.70;99.90;;;14.70;75.06;94469.03;5009525;28;20655;-73
2021/08/31 00:12:54;;;;;;;9.77;7.23;;;14.20;99.90;;;14.69;75.21;94470.09;5017579;28;20233;-73
2021/08/31 00:15:21;;;;;;;8.17;6.43;;;14.40;99.90;;;14.61;75.15;94459.97;5006100;28;20231;-73
2021/08/31 00:17:47;;;;;;;8.73;7.30;;;13.70;99.90;;;14.62;75.12;94472.25;5015648;28;20183;-73
2021/08/31 00:20:13;;;;;;;7.37;6.67;;;13.60;99.90;;;14.61;75.25;94496.53;5018177;28;20193;-74
2021/08/31 00:22:41;;;;;;;9.20;7.23;;;13.50;99.90;;;14.65;75.31;94482.38;5006998;28;20198;-73
2021/08/31 00:25:08;;;;;;;8.27;6.70;;;14.10;99.90;;;14.68;75.26;94491.69;5023447;28;21014;-73
2021/08/31 00:27:35;;;;;;;9.40;6.60;;;14.00;99.90;;;14.66;75.44;94486.66;5017070;28;20662;-73
2021/08/31 00:30:01;;;;;;;7.50;6.67;;;14.10;99.90;;;14.62;75.44;94474.91;5025025;28;20197;-73
2021/08/31 00:32:31;;;;;;;10.63;7.60;;;13.60;99.90;;;14.62;75.28;94474.91;5018579;28;20610;-73
2021/08/31 00:34:57;;;;;;;8.97;7.10;;;13.60;99.90;;;14.72;75.42;94482.06;5021524;28;20195;-73
2021/08/31 00:37:23;;;;;;;7.10;6.40;;;13.70;99.90;;;14.75;75.49;94484.97;5005849;28;20198;-73
2021/08/31 00:39:49;;;;;;;7.40;6.70;;;13.70;99.90;;;14.69;75.46;94477.28;5023361;28;20191;-73
2021/08/31 00:42:15;;;;;;;8.93;6.70;;;13.70;99.90;;;14.70;75.60;94476.22;5016862;28;20199;-73
2021/08/31 00:44:41;;;;;;;9.40;6.80;;;14.00;99.90;;;14.71;75.67;94483.13;5020954;28;20254;-73
2021/08/31 00:47:07;;;;;;;7.87;6.80;;;13.40;99.90;;;14.64;75.65;94480.00;5019913;28;20209;-74
2021/08/31 00:49:33;;;;;;;8.37;6.53;;;13.60;99.90;;;14.72;75.77;94484.72;5021082;28;20207;-73
2021/08/31 00:52:03;;;;;;;7.37;6.53;;;13.50;99.90;;;14.73;75.79;94481.81;4998599;28;20225;-73
2021/08/31 00:54:30;;;;;;;8.13;7.03;;;13.70;99.90;;;14.78;75.64;94480.97;5007313;28;20202;-73
2021/08/31 00:57:07;;;;;;;8.33;7.53;;;13.80;99.90;;;14.80;75.71;94489.50;5021102;28;20198;-73
2021/08/31 00:59:34;;;;;;;10.30;8.80;;;13.80;99.90;;;14.87;75.95;94482.75;5020379;28;20198;-73
2021/08/31 01:02:00;;;;;;;12.50;10.97;;;13.90;99.90;;;14.84;75.95;94482.56;5039923;28;20204;-73
2021/08/31 01:04:28;;;;;;;15.77;12.60;;;13.80;99.90;;;14.80;75.91;94474.28;5019412;28;20192;-73
2021/08/31 01:06:55;;;;;;;17.10;13.87;;;13.80;99.90;;;14.72;75.94;94468.72;5023164;28;20203;-73
2021/08/31 01:09:23;;;;;;;15.37;13.67;;;13.70;99.90;;;14.75;76.15;94478.84;5021751;28;20187;-73
2021/08/31 01:11:52;;;;;;;16.80;14.20;;;14.40;99.90;;;14.69;75.78;94477.28;5016967;28;20212;-73
2021/08/31 01:14:19;;;;;;;16.17;13.87;;;13.70;99.90;;;14.71;76.08;94486.59;5021394;28;20315;-73
2021/08/31 01:16:50;;;;;;;17.03;14.80;;;13.80;99.90;;;14.73;76.12;94478.34;5016212;28;20193;-73
2021/08/31 01:19:30;;;;;;;17.37;15.00;;;14.50;99.90;;;14.65;75.91;94479.69;5021858;28;20314;-73
2021/08/31 01:22:08;;;;;;;19.93;15.40;;;13.60;99.90;;;14.64;76.08;94486.09;5013678;28;20211;-73
2021/08/31 01:24:41;;;;;;;18.17;15.30;;;14.40;99.90;;;14.70;76.15;94484.22;5008866;28;20192;-73
2021/08/31 01:27:08;;;;;;;18.53;15.63;;;13.40;99.90;;;14.77;76.26;94480.16;4999359;28;20226;-73
2021/08/31 01:29:35;;;;;;;18.90;14.67;;;14.30;99.90;;;14.74;76.49;94486.06;5024779;28;20196;-73
2021/08/31 01:32:07;;;;;;;18.93;15.40;;;13.70;99.90;;;14.75;76.47;94484.97;4996881;28;20230;-73
2021/08/31 01:34:33;;;;;;;20.47;14.50;;;14.80;99.90;;;14.79;76.37;94486.03;5004896;28;20196;-74
2021/08/31 01:36:59;;;;;;;21.07;16.30;;;14.50;99.90;;;14.81;76.71;94483.88;5006312;28;20227;-73
2021/08/31 01:39:28;;;;;;;19.80;15.50;;;14.40;99.90;;;14.94;76.56;94479.78;5025231;28;20307;-73
2021/08/31 01:41:57;;;;;;;18.57;15.07;;;14.10;99.90;;;14.97;76.50;94481.13;5025241;28;20637;-73
2021/08/31 01:44:22;;;;;;;17.43;14.60;;;13.80;99.90;;;14.96;76.55;94476.84;5008356;28;20211;-73
2021/08/31 01:46:51;;;;;;;18.33;14.17;;;13.80;99.90;;;14.96;76.71;94479.53;5014789;28;20208;-73
2021/08/31 01:49:18;;;;;;;17.77;13.63;;;13.80;99.90;;;14.93;76.60;94480.09;5021557;28;20211;-73
2021/08/31 01:51:44;;;;;;;16.17;13.03;;;13.80;99.90;;;14.87;76.55;94471.31;5021994;28;20210;-73
2021/08/31 01:54:11;;;;;;;14.60;13.00;;;13.80;99.90;;;14.82;76.81;94476.66;5036567;28;20188;-73
2021/08/31 01:56:39;;;;;;;16.70;13.33;;;13.70;99.90;;;14.75;76.74;94473.50;5014583;28;20203;-73
2021/08/31 01:59:05;;;;;;;16.00;13.37;;;13.70;99.90;;;14.79;76.84;94485.22;5008870;28;20206;-73
2021/08/31 02:01:31;;;;;;;15.17;12.70;;;13.60;99.90;;;14.71;76.68;94475.94;5038335;28;20192;-73
2021/08/31 02:03:57;;;;;;;16.27;13.90;;;14.80;99.90;;;14.75;76.88;94482.31;5024786;28;20206;-73
2021/08/31 02:06:23;;;;;;;15.77;13.60;;;13.60;99.90;;;14.73;76.58;94483.66;5028345;28;20193;-73
2021/08/31 02:08:49;;;;;;;14.40;12.27;;;13.70;99.90;;;14.69;76.74;94474.63;5024434;28;20215;-73
2021/08/31 02:11:18;;;;;;;12.90;11.50;;;13.60;99.90;;;14.65;76.78;94478.91;4994631;28;20227;-74
2021/08/31 02:13:44;;;;;;;12.63;11.20;;;13.20;99.90;;;14.65;76.81;94501.03;5024531;28;20184;-74
2021/08/31 02:16:12;;;;;;;13.20;11.77;;;13.80;99.90;;;14.55;77.00;94486.97;5035653;28;20193;-73
2021/08/31 02:18:41;;;;;;;15.97;12.23;;;13.30;99.90;;;14.48;76.46;94489.91;5024728;28;20638;-73
2021/08/31 02:21:11;;;;;;;14.23;12.07;;;13.20;99.90;;;14.43;76.95;94481.16;5027285;28;20262;-73
2021/08/31 02:23:43;;;;;;;16.23;13.30;;;13.40;99.90;;;14.50;77.04;94484.31;5024266;28;20222;-73
2021/08/31 02:26:11;;;;;;;15.00;12.97;;;13.40;99.90;;;14.51;77.11;94472.56;5017885;28;20207;-73
2021/08/31 02:28:40;;;;;;;13.57;11.73;;;14.50;99.90;;;14.48;77.18;94470.44;5023527;28;20254;-73
2021/08/31 02:31:06;;;;;;;14.57;11.90;;;13.40;99.90;;;14.51;76.41;94478.69;5006502;28;20277;-74
2021/08/31 02:33:33;;;;;;;16.17;11.03;;;14.20;99.90;;;14.48;77.19;94465.91;5023925;28;20201;-74
2021/08/31 02:36:02;;;;;;;15.50;12.03;;;14.40;99.90;;;14.50;77.35;94476.31;5009065;28;20196;-74
2021/08/31 02:38:30;;;;;;;14.57;11.63;;;13.40;99.90;;;14.51;77.16;94469.91;5025074;28;21031;-74
2021/08/31 02:40:56;;;;;;;14.30;11.80;;;14.10;99.90;;;14.55;77.34;94476.28;5019088;28;20210;-74
2021/08/31 02:43:21;;;;;;;12.53;11.13;;;13.50;99.90;;;14.51;77.37;94470.69;5020895;28;20193;-73
2021/08/31 02:45:50;;;;;;;13.23;11.63;;;13.50;99.90;;;14.57;77.16;94479.50;5025588;28;20229;-73
2021/08/31 02:48:21;;;;;;;12.70;10.93;;;14.20;99.90;;;14.54;77.37;94482.72;5024604;28;20821;-73
2021/08/31 02:50:47;;;;;;;12.83;11.30;;;13.50;99.90;;;14.57;77.47;94480.25;4997202;28;20207;-74
2021/08/31 02:53:14;;;;;;;13.73;11.80;;;14.20;99.90;;;14.57;77.55;94490.16;5020516;28;20214;-74
2021/08/31 02:55:40;;;;;;;13.40;11.50;;;13.60;99.90;;;14.60;77.41;94481.59;5018771;28;20204;-74
2021/08/31 02:58:06;;;;;;;13.23;11.83;;;13.50;99.90;;;14.60;77.47;94490.41;5021712;28;20214;-73
2021/08/31 03:00:33;;;;;;;15.87;12.10;;;13.60;99.90;;;14.64;77.50;94486.09;5021179;28;20627;-74
2021/08/31 03:02:59;;;;;;;13.37;11.77;;;14.30;99.90;;;14.64;77.53;94490.66;5022847;28;20631;-73
2021/08/31 03:05:25;;;;;;;12.57;11.27;;;13.60;99.90;;;14.70;77.65;94484.22;4993247;28;20303;-73
2021/08/31 03:07:53;;;;;;;13.93;12.33;;;14.70;99.90;;;14.70;77.51;94492.22;5022802;28;20302;-73
2021/08/31 03:10:21;;;;;;;14.13;11.80;;;13.60;99.90;;;14.72;77.47;94490.88;5019176;28;20201;-73
2021/08/31 03:12:46;;;;;;;13.27;11.57;;;14.60;99.90;;;14.73;77.79;94486.34;5008551;28;20224;-73
2021/08/31 03:15:14;;;;;;;13.53;11.93;;;13.70;99.90;;;14.81;77.56;94483.06;5025387;28;20264;-73
2021/08/31 03:17:40;;;;;;;14.67;11.97;;;14.50;99.90;;;14.70;77.67;94476.22;5021511;28;20646;-73
2021/08/31 03:20:07;;;;;;;14.57;12.20;;;14.20;99.90;;;14.72;77.74;94479.41;5007581;28;20198;-73
2021/08/31 03:22:35;;;;;;;15.47;12.07;;;13.70;99.90;;;14.63;77.75;94481.06;5024636;28;20198;-73
2021/08/31 03:25:04;;;;;;;12.87;11.50;;;14.20;99.90;;;14.58;77.51;94471.19;5021520;28;20213;-73
2021/08/31 03:27:30;;;;;;;13.47;11.60;;;14.60;99.90;;;14.60;77.69;94471.75;5004772;28;20649;-74
2021/08/31 03:29:56;;;;;;;14.37;12.87;;;13.90;99.90;;;14.63;77.91;94481.06;5024144;28;20193;-73
2021/08/31 03:32:22;;;;;;;12.70;11.40;;;13.60;99.90;;;14.67;77.66;94476.78;5009278;28;20239;-74
2021/08/31 03:34:48;;;;;;;13.27;11.70;;;13.60;99.90;;;14.63;77.92;94479.19;5004942;28;20203;-73
2021/08/31 03:37:14;;;;;;;13.77;12.00;;;13.60;99.90;;;14.62;77.93;94482.13;5019166;28;20188;-74
2021/08/31 03:39:40;;;;;;;13.20;10.77;;;13.70;99.90;;;14.61;77.86;94472.50;5016842;28;20213;-74
2021/08/31 03:42:06;;;;;;;14.13;12.47;;;;;;;14.59;78.04;94485.34;5023219;28;20214;-74
2021/08/31 03:44:35;;;;;;;15.47;11.43;;;13.40;99.90;;;14.58;77.95;94487.22;5022140;28;20682;-74
2021/08/31 03:47:03;;;;;;;14.40;11.97;;;12.40;99.90;;;14.60;78.26;94485.09;5018858;28;20675;-74
2021/08/31 03:49:31;;;;;;;13.10;11.13;;;13.50;99.90;;;14.64;77.96;94480.00;4991697;28;20897;-73
2021/08/31 03:51:57;;;;;;;13.90;12.13;;;12.80;99.90;;;14.69;77.97;94486.09;5022508;28;20227;-73
2021/08/31 03:54:24;;;;;;;13.23;11.77;;;14.50;99.90;;;14.67;77.95;94482.09;4999085;28;20192;-72
2021/08/31 03:56:50;;;;;;;15.93;12.77;;;14.20;99.90;;;14.65;77.93;94484.22;5020692;28;20271;-73
2021/08/31 03:59:16;;;;;;;15.93;13.57;;;13.60;99.90;;;14.65;78.15;94486.91;5023472;28;20336;-74
2021/08/31 04:01:42;;;;;;;13.60;12.20;;;13.60;99.90;;;14.64;78.19;94494.09;5020708;28;20295;-73
2021/08/31 04:04:10;;;;;;;14.17;12.37;;;13.60;99.90;;;14.62;78.10;94498.94;5023775;28;20694;-73
2021/08/31 04:06:37;;;;;;;14.30;12.23;;;13.60;99.90;;;14.67;78.07;94500.78;4992841;28;20281;-74
2021/08/31 04:09:05;;;;;;;14.07;12.57;;;13.60;99.90;;;14.71;78.33;94493.81;5025238;28;20211;-74
2021/08/31 04:11:31;;;;;;;14.30;11.73;;;14.60;99.90;;;14.67;78.35;94484.78;5019061;28;20219;-73
2021/08/31 04:14:00;;;;;;;13.60;11.43;;;14.30;99.90;;;14.70;78.22;94489.56;5017557;28;20248;-73
2021/08/31 04:16:25;;;;;;;12.67;11.27;;;13.70;99.90;;;14.70;78.19;94486.88;5020551;28;20270;-72
2021/08/31 04:18:54;;;;;;;12.70;11.30;;;13.70;99.90;;;14.62;78.23;94495.47;5010325;28;20270;-74
2021/08/31 04:21:20;;;;;;;13.93;12.43;;;14.40;99.90;;;14.60;78.56;94497.63;5015553;28;20208;-74
2021/08/31 04:23:49;;;;;;;14.77;11.90;;;13.60;99.90;;;14.64;78.45;94501.34;5019731;28;20215;-74
2021/08/31 04:26:17;;;;;;;13.33;11.60;;;13.80;99.90;;;14.65;78.39;94502.91;5019462;28;20223;-75
2021/08/31 04:28:45;;;;;;;15.03;11.50;;;13.60;99.90;;;14.68;78.46;94500.50;5023556;28;20774;-74
2021/08/31 04:31:14;;;;;;;12.83;11.37;;;13.60;99.90;;;14.72;78.11;94506.09;5016915;28;20216;-74
2021/08/31 04:33:40;;;;;;;14.67;11.63;;;14.40;99.90;;;14.69;78.54;94503.97;4989899;28;20269;-74
2021/08/31 04:36:06;;;;;;;13.43;12.10;;;14.10;99.90;;;14.64;78.53;94501.34;5019895;28;20713;-74
2021/08/31 04:38:34;;;;;;;15.77;12.63;;;13.60;99.90;;;14.67;78.64;94508.78;5006207;28;20213;-74
2021/08/31 04:41:00;;;;;;;14.97;12.70;;;14.10;99.90;;;14.67;78.68;94500.78;5015468;28;20200;-74
2021/08/31 04:43:27;;;;;;;14.30;12.80;;;13.00;99.90;;;14.74;78.62;94498.63;4988726;28;20228;-74
2021/08/31 04:45:53;;;;;;;15.10;13.23;;;13.70;99.90;;;14.73;78.43;94513.81;5017701;28;20249;-74
2021/08/31 04:48:19;;;;;;;15.07;13.20;;;13.90;99.90;;;14.78;78.74;94504.97;5021507;28;20254;-74
2021/08/31 04:50:47;;;;;;;94.60;81.30;;;13.70;99.90;;;14.74;78.63;94503.94;5001602;28;20199;-74
2021/08/31 04:53:13;;;;;;;39.20;34.40;;;13.80;99.90;;;14.75;78.74;94502.84;5021406;28;20207;-73
2021/08/31 04:55:42;;;;;;;35.70;31.57;;;14.10;99.90;;;14.74;78.83;94511.97;5019360;28;20189;-74
2021/08/31 04:58:09;;;;;;;21.10;18.20;;;13.70;99.90;;;14.79;78.64;94519.91;5018978;28;20192;-74
2021/08/31 05:00:38;;;;;;;18.57;16.57;;;13.70;99.90;;;14.70;78.71;94508.25;5001873;28;20211;-74
2021/08/31 05:03:08;;;;;;;16.03;13.97;;;13.70;99.90;;;14.73;78.76;94518.34;5022316;28;20245;-74
2021/08/31 05:05:35;;;;;;;16.77;14.23;;;14.30;99.90;;;14.78;78.56;94513.78;5020556;28;20207;-74
2021/08/31 05:08:03;;;;;;;16.07;13.90;;;13.20;99.90;;;14.64;78.94;94510.13;5023294;28;20665;-74
2021/08/31 05:10:29;;;;;;;17.33;13.53;;;14.60;99.90;;;14.61;78.76;94508.00;5012924;28;20197;-73
2021/08/31 05:12:55;;;;;;;17.67;13.23;;;14.60;99.90;;;14.66;78.94;94518.66;5021774;28;20853;-73
2021/08/31 05:15:21;;;;;;;14.90;13.07;;;12.80;99.90;;;14.69;78.69;94522.63;5034222;28;20189;-74
2021/08/31 05:17:50;;;;;;;16.50;13.73;;;14.70;99.90;;;14.73;78.70;94523.69;5020475;28;20198;-74
2021/08/31 05:20:20;;;;;;;17.37;14.33;;;13.70;99.90;;;14.81;78.69;94531.09;5014901;28;20188;-75
2021/08/31 05:22:50;;;;;;;15.90;13.90;;;13.70;99.90;;;14.79;78.82;94518.06;5022292;28;20684;-71
2021/08/31 05:25:17;;;;;;;18.83;15.10;;;14.20;99.90;;;14.77;78.76;94525.53;5021857;28;20794;-71
2021/08/31 05:27:43;;;;;;;20.00;15.57;;;13.60;99.90;;;14.78;78.99;94527.13;5019553;28;20198;-71
2021/08/31 05:30:12;;;;;;;18.20;15.33;;;14.40;99.90;;;14.81;79.01;94521.25;5017908;28;20902;-71
2021/08/31 05:32:44;;;;;;;18.57;16.20;;;14.00;99.90;;;14.80;79.03;94519.66;5022462;28;20212;-73
2021/08/31 05:35:11;;;;;;;17.73;15.73;;;14.20;99.90;;;14.80;78.92;94530.34;5012304;28;20285;-71
2021/08/31 05:37:38;;;;;;;20.37;16.40;;;14.60;99.90;;;14.75;78.92;94526.88;5023752;28;20184;-71
2021/08/31 05:40:08;;;;;;;20.47;17.37;;;14.50;99.90;;;14.75;78.93;94524.22;5003136;28;20226;-71
2021/08/31 05:42:34;;;;;;;19.70;17.43;;;13.60;99.90;;;14.74;78.86;94517.28;5023985;28;20335;-70
2021/08/31 05:45:00;;;;;;;19.80;16.67;;;14.40;99.90;;;14.80;79.18;94522.34;5004079;28;20285;-71
2021/08/31 05:47:26;;;;;;;20.87;16.30;;;14.70;99.90;;;14.78;79.11;94532.47;5008264;28;20212;-71
2021/08/31 05:49:52;;;;;;;24.73;17.77;;;13.00;99.90;;;14.86;78.99;94536.44;5029496;28;20727;-71
2021/08/31 05:52:18;;;;;;;19.13;16.17;;;14.50;99.90;;;14.99;79.18;94541.16;5024126;28;20375;-71
2021/08/31 05:54:44;;;;;;;20.20;16.23;;;13.30;99.90;;;15.05;79.62;94547.25;5019483;28;20208;-71
2021/08/31 05:57:10;;;;;;;23.83;16.93;;;13.90;99.90;;;15.18;78.92;94549.31;5024532;28;20180;-71
2021/08/31 05:59:42;;;;;;;18.47;15.63;;;14.40;99.90;;;15.25;79.18;94545.28;5004367;28;20177;-71
2021/08/31 06:02:10;;;;;;;20.63;15.17;;;14.60;99.90;;;15.34;79.12;94548.16;4991674;28;20209;-71
2021/08/31 06:04:37;;;;;;;19.33;15.93;;;13.80;99.90;;;15.48;79.22;94557.16;5023129;28;20203;-73
2021/08/31 06:07:10;;;;;;;17.37;13.73;;;15.20;99.90;;;15.67;79.04;94551.97;5024197;28;20192;-70
2021/08/31 06:09:40;;;;;;;14.70;13.17;;;15.10;99.90;;;15.78;79.27;94548.13;5026480;28;20195;-72
2021/08/31 06:12:11;;;;;;;14.97;13.23;;;14.60;99.90;;;15.87;79.31;94552.59;5007966;28;20215;-71
2021/08/31 06:14:38;;;;;;;17.07;13.47;;;14.00;99.90;;;15.88;79.34;94545.38;5012329;28;20181;-75
2021/08/31 06:17:08;;;;;;;14.97;12.47;;;14.90;99.90;;;16.08;79.32;94555.06;5024733;28;20191;-72
2021/08/31 06:19:35;;;;;;;14.70;13.17;;;15.00;99.90;;;16.05;79.09;94548.38;5025567;28;20889;-70
2021/08/31 06:22:04;;;;;;;14.90;13.37;;;14.90;99.90;;;15.82;79.41;94544.59;5006593;28;20211;-71
2021/08/31 06:24:30;;;;;;;13.53;12.13;;;15.10;99.90;;;15.81;79.20;94544.91;5001010;28;20197;-71
2021/08/31 06:26:56;;;;;;;16.00;13.67;;;15.10;99.90;;;15.78;79.28;94559.59;5022818;28;20196;-72
2021/08/31 06:29:25;;;;;;;16.53;13.63;;;15.00;99.90;;;15.98;79.04;94573.88;5023030;28;20749;-72
2021/08/31 06:31:55;;;;;;;13.83;12.43;;;15.30;99.90;;;15.95;79.11;94558.41;5021594;28;20308;-72
2021/08/31 06:34:21;;;;;;;13.90;12.37;;;15.00;99.90;;;15.79;79.30;94555.84;5023471;28;20235;-73
2021/08/31 06:36:50;;;;;;;14.70;12.27;;;15.20;99.90;;;15.73;79.26;94574.88;5008886;28;20598;-71
2021/08/31 06:39:19;;;;;;;14.87;12.73;;;15.40;99.90;;;15.77;79.24;94573.25;5018439;28;20227;-72
2021/08/31 06:41:49;;;;;;;13.07;11.70;;;14.80;99.90;;;15.99;79.10;94578.13;5025396;28;20225;-72
2021/08/31 06:44:16;;;;;;;14.07;12.53;;;14.00;99.90;;;15.88;79.11;94580.13;4998600;28;20201;-72
2021/08/31 06:46:42;;;;;;;15.80;13.87;;;14.80;99.90;;;16.06;79.25;94581.28;5023771;28;20201;-73
2021/08/31 06:49:08;;;;;;;14.43;12.93;;;14.90;99.90;;;16.06;79.23;94571.38;5024815;28;20199;-72
2021/08/31 06:51:34;;;;;;;14.83;13.07;;;15.10;99.90;;;16.10;79.17;94576.97;5022586;28;20204;-72
2021/08/31 06:54:00;;;;;;;14.20;12.50;;;14.80;99.90;;;16.24;79.06;94586.75;5023236;28;20559;-72
2021/08/31 06:56:27;;;;;;;13.43;11.97;;;15.10;99.90;;;16.38;79.11;94584.97;5025344;28;20219;-72
2021/08/31 06:58:53;;;;;;;13.83;11.13;;;15.30;99.90;;;16.62;79.16;94592.28;5018489;28;20197;-73
2021/08/31 07:01:18;;;;;;;13.83;12.33;;;15.10;99.90;;;16.55;78.79;94568.53;4991513;28;20649;-71
2021/08/31 07:03:44;;;;;;;14.03;12.60;;;15.50;99.90;;;16.53;78.96;94585.91;5005725;28;20581;-71
2021/08/31 07:06:10;;;;;;;13.53;12.13;;;16.20;99.90;;;16.74;79.15;94588.09;5023632;28;20270;-73
2021/08/31 07:08:38;;;;;;;14.53;13.03;;;15.60;99.90;;;16.92;79.18;94581.22;5005278;28;20232;-73
2021/08/31 07:11:04;;;;;;;15.30;13.33;;;15.90;99.90;;;16.99;78.97;94581.63;5024148;28;20595;-72
2021/08/31 07:13:30;;;;;;;13.73;12.33;;;;;;;16.91;79.00;94579.59;5009450;28;20268;-72
2021/08/31 07:15:56;;;;;;;13.73;12.20;;;14.80;99.90;;;16.81;78.87;94579.72;5021572;28;20331;-74
2021/08/31 07:18:22;;;;;;;14.90;13.30;;;14.90;99.90;;;16.63;79.21;94575.09;5020584;28;20285;-75
2021/08/31 07:20:48;;;;;;;12.97;11.67;;;16.30;99.90;;;16.67;78.83;94579.63;5020541;28;20204;-73
2021/08/31 07:23:14;;;;;;;11.93;10.83;;;15.70;99.90;;;16.85;79.12;94588.78;5020045;28;20228;-74
2021/08/31 07:25:46;;;;;;;11.90;10.80;;;16.20;99.90;;;16.93;78.98;94593.50;5021999;28;20701;-72
2021/08/31 07:28:13;;;;;;;12.40;11.20;;;16.20;99.90;;;17.05;79.04;94595.78;5021594;28;20210;-71
2021/08/31 07:30:39;;;;;;;12.87;11.63;;;15.60;99.90;;;16.67;79.01;94590.31;5019172;28;20194;-72
2021/08/31 07:33:09;;;;;;;12.47;11.03;;;15.70;99.90;;;16.47;78.98;94593.19;5026600;28;20229;-73
2021/08/31 07:35:36;;;;;;;12.53;11.33;;;14.20;99.90;;;16.61;78.70;94604.84;5004185;28;20202;-72
2021/08/31 07:38:04;;;;;;;12.30;11.03;;;15.70;99.90;;;16.69;78.77;94606.09;5026246;28;20192;-73
2021/08/31 07:40:32;;;;;;;14.97;12.20;;;16.00;99.90;;;16.75;78.79;94597.75;5017829;28;20241;-72
2021/08/31 07:43:00;;;;;;;13.77;11.73;;;15.80;99.90;;;17.06;78.92;94653.59;5009709;28;20600;-72
2021/08/31 07:45:27;;;;;;;13.03;10.60;;;15.80;99.90;;;18.41;78.52;94653.56;5003823;28;20223;-70
2021/08/31 07:47:58;;;;;;;10.70;9.57;;;17.00;99.90;;;19.09;78.61;94617.16;5021825;28;20213;-70
2021/08/31 07:50:24;;;;;;;9.60;8.70;;;17.90;99.90;;;19.22;78.58;94619.81;5023114;28;20213;-70
2021/08/31 07:52:52;;;;;;;10.07;9.17;;;18.10;99.90;;;18.70;78.57;94614.97;4991646;28;20561;-70
2021/08/31 07:55:21;;;;;;;9.80;8.80;;;17.80;99.90;;;18.44;78.50;94607.31;5017445;28;20211;-71
2021/08/31 07:57:47;;;;;;;9.53;8.63;;;17.70;99.90;;;17.80;78.54;94597.41;5021810;28;20700;-72
2021/08/31 08:00:17;;;;;;;10.53;9.43;;;17.10;99.90;;;17.71;78.45;94617.13;4989700;28;20244;-71
2021/08/31 08:02:43;;;;;;;9.73;8.83;;;17.00;99.90;;;17.52;78.23;94621.66;5020232;28;20200;-71
2021/08/31 08:05:15;;;;;;;10.27;9.23;;;16.70;99.90;;;17.49;78.31;94617.69;5016835;28;20662;-72
2021/08/31 08:07:40;;;;;;;10.23;9.13;;;16.10;99.90;;;17.63;78.07;94623.94;5005048;28;20199;-70
2021/08/31 08:10:08;;;;;;;10.57;8.87;;;17.20;99.90;;;17.69;78.26;94619.31;5002636;28;20249;-73
2021/08/31 08:12:37;;;;;;;9.47;8.53;;;16.70;99.90;;;17.69;78.19;94619.31;5018468;28;20215;-73
2021/08/31 08:15:05;;;;;;;9.97;9.07;;;16.80;99.90;;;17.88;78.29;94623.56;5007453;28;20242;-73
2021/08/31 08:17:31;;;;;;;10.50;9.10;;;16.90;99.90;;;18.09;77.80;94621.38;5001068;28;20187;-70
2021/08/31 08:19:59;;;;;;;9.80;8.80;;;16.80;99.90;;;17.83;77.70;94615.59;5022528;28;20211;-74
2021/08/31 08:22:29;;;;;;;10.30;8.87;;;16.80;99.90;;;17.72;77.61;94634.81;4988124;28;20302;-73
2021/08/31 08:24:57;;;;;;;8.43;7.67;;;17.50;99.90;;;17.72;77.80;94632.13;5016952;28;20200;-72
2021/08/31 08:27:23;;;;;;;12.07;9.00;;;16.60;99.90;;;17.71;77.78;94625.16;5015539;28;20196;-71
2021/08/31 08:29:52;;;;;;;11.17;9.17;;;16.80;99.90;;;17.60;77.70;94629.06;5019706;28;20290;-71
2021/08/31 08:32:18;;;;;;;10.13;9.13;;;16.00;99.90;;;17.55;77.80;94637.16;5018428;28;20257;-73
2021/08/31 08:34:44;;;;;;;9.03;8.23;;;16.60;99.90;;;17.68;77.72;94634.59;5023168;28;20196;-74
2021/08/31 08:37:11;;;;;;;10.53;8.17;;;16.20;99.90;;;17.88;77.68;94649.59;5025427;28;20185;-72
2021/08/31 08:39:40;;;;;;;9.87;8.20;;;16.70;99.90;;;18.07;77.40;94647.66;5025123;28;20713;-72
2021/08/31 08:42:08;;;;;;;11.23;9.03;;;18.20;99.90;;;18.51;77.19;94643.75;5022765;28;20202;-70
2021/08/31 08:44:35;;;;;;;8.57;7.17;;;18.20;99.90;;;18.89;77.29;94667.50;5020855;28;20568;-70
2021/08/31 08:47:02;;;;;;;7.17;6.47;;;17.70;99.90;;;19.24;77.27;94674.06;5013755;28;20302;-71
2021/08/31 08:49:29;;;;;;;6.90;6.20;;;18.10;99.90;;;19.86;77.31;94645.63;5018336;28;20286;-69
2021/08/31 08:52:00;;;;;;;7.80;7.00;;;19.00;99.90;;;19.71;77.17;94639.81;5023268;28;20601;-70
2021/08/31 08:54:29;;;;;;;8.60;7.80;;;18.80;99.90;;;19.61;77.14;94658.84;5020581;28;20192;-72
2021/08/31 08:56:56;;;;;;;7.93;7.13;;;20.10;99.90;;;20.79;76.68;94681.63;5014576;28;20219;-72
2021/08/31 08:59:23;;;;;;;7.10;6.43;;;19.80;99.90;;;21.51;76.53;94651.66;5008117;28;20245;-73
2021/08/31 09:01:52;;;;;;;8.40;5.80;;;20.80;99.90;;;20.96;76.65;94616.22;5015478;28;20541;-72
2021/08/31 09:04:49;;;;;;;7.53;6.83;;;20.50;99.90;;;20.39;76.50;94634.16;5014653;28;20671;-70
2021/08/31 09:07:27;;;;;;;7.20;6.50;;;20.00;99.90;;;20.12;76.44;94648.50;5017487;28;20192;-72
2021/08/31 09:10:22;;;;;;;8.77;6.90;;;19.60;99.90;;;20.09;76.33;94648.31;5026330;28;20230;-72
2021/08/31 09:12:53;;;;;;;7.80;7.03;;;19.50;99.90;;;19.80;76.41;94630.72;5028863;28;20219;-74
2021/08/31 09:15:31;;;;;;;7.90;7.10;;;19.30;99.90;;;19.29;76.13;94649.78;5025386;28;20192;-71
2021/08/31 09:18:19;;;;;;;8.77;7.50;;;18.40;99.90;;;19.00;76.08;94638.56;5021485;28;20196;-71
2021/08/31 09:21:04;;;;;;;9.67;8.50;;;18.40;99.90;;;18.76;75.82;94651.38;5030379;28;20326;-71
2021/08/31 09:23:41;;;;;;;7.83;7.03;;;18.10;99.90;;;18.77;75.71;94655.63;5011171;28;20746;-70
2021/08/31 09:26:12;;;;;;;8.60;7.80;;;18.00;99.90;;;18.62;75.58;94654.03;5021917;28;20194;-71
2021/08/31 09:28:42;;;;;;;8.23;7.47;;;18.40;99.90;;;19.09;75.88;94663.63;5007502;28;20804;-71
2021/08/31 09:31:13;;;;;;;7.57;6.70;;;19.70;99.90;;;19.39;75.54;94679.16;5011171;28;20221;-69
2021/08/31 09:33:50;;;;;;;7.40;6.70;;;19.80;99.90;;;21.10;75.35;94767.13;5024540;28;20200;-70
2021/08/31 09:36:28;;;;;;;6.40;5.80;;;22.30;99.90;;;23.25;75.01;94693.38;5014720;28;20294;-71
2021/08/31 09:39:02;;;;;;;6.33;5.73;;;23.40;99.90;;;22.58;75.48;94589.69;5010262;28;20193;-72
2021/08/31 09:41:43;;;;;;;5.80;5.30;;;22.20;99.90;;;21.55;74.86;94643.72;5014308;28;20564;-73
2021/08/31 09:44:19;;;;;;;5.50;5.10;;;21.50;99.90;;;21.67;74.41;94676.28;5022579;28;20199;-71
2021/08/31 09:46:58;;;;;;;6.83;6.23;;;21.30;99.90;;;21.69;74.70;94663.28;5025388;28;20216;-71
2021/08/31 09:49:39;;;;;;;5.80;5.30;;;21.30;99.90;;;21.67;74.69;94687.06;5021444;28;20191;-71
2021/08/31 09:52:16;;;;;;;6.50;5.90;;;21.20;99.90;;;21.75;74.13;94665.50;5027335;28;20242;-72
2021/08/31 09:54:48;;;;;;;6.23;5.63;;;21.20;99.90;;;21.58;74.14;94676.28;5025224;28;20611;-71
2021/08/31 09:57:37;;;;;;;6.40;5.60;;;21.20;99.90;;;21.80;74.09;94672.66;5010532;28;20188;-71
2021/08/31 10:00:17;;;;;;;5.93;5.37;;;20.90;99.90;;;21.79;73.97;94641.38;5021094;28;20183;-69
2021/08/31 10:02:52;;;;;;;6.40;5.80;;;21.10;99.90;;;22.95;73.57;94757.41;5037598;28;20211;-70
2021/08/31 10:05:19;;;;;;;5.93;5.43;;;21.80;99.90;;;26.04;72.92;94846.75;5025997;28;21007;-71
2021/08/31 10:07:45;;;;;;;6.57;5.23;;;24.40;99.90;;;29.70;72.26;94853.28;5011900;28;20193;-70
2021/08/31 10:10:14;;;;;;;5.50;4.23;;;28.20;99.90;;;29.72;72.09;94676.84;5024374;28;20335;-71
2021/08/31 10:12:40;;;;;;;7.33;5.60;;;29.40;99.90;;;28.30;71.58;94632.47;5027148;28;20289;-69
2021/08/31 10:15:11;;;;;;;5.43;5.00;;;27.30;99.90;;;26.50;71.95;94577.09;5006685;28;20185;-69